sensor_id;sensor_type;location;lat;lon;timestamp;P1;durP1;ratioP1;P2;durP2;ratioP2
40717;SDS011;26405;51.850;-2.246;2023-05-24T00:02:08;14.43;;;4.20;;
40717;SDS011;26405;51.850;-2.246;2023-05-24T00:04:34;14.02;;;4.15;;
40717;SDS011;26405;51.850;-2.246;2023-05-24T00:07:00;15.05;;;4.43;;
40717;SDS011;26405;51.850;-2.246;2023-05-24T00:09:29;14.07;;;3.95;;
40717;SDS011;26405;51.850;-2.246;2023-05-24T00:11:54;12.93;;;4.10;;
40717;SDS011;26405;51.850;-2.246;2023-05-24T00:14:20;15.00;;;3.90;;
40717;SDS011;26405;51.850;-2.246;2023-05-24T00:16:45;12.55;;;4.15;;
40717;SDS011;26405;51.850;-2.246;2023-05-24T00:21:37;14.23;;;4.10;;
40717;SDS011;26405;51.850;-2.246;2023-05-24T00:24:03;12.18;;;3.88;;
40717;SDS011;26405;51.850;-2.246;2023-05-24T00:26:28;11.43;;;3.93;;
40717;SDS011;26405;51.850;-2.246;2023-05-24T00:28:53;14.13;;;3.80;;
40717;SDS011;26405;51.850;-2.246;2023-05-24T00:31:18;13.70;;;4.05;;
40717;SDS011;26405;51.850;-2.246;2023-05-24T00:33:44;13.07;;;4.25;;
40717;SDS011;26405;51.850;-2.246;2023-05-24T00:36:09;13.05;;;4.10;;
40717;SDS011;26405;51.850;-2.246;2023-05-24T00:38:34;13.60;;;4.07;;
40717;SDS011;26405;51.850;-2.246;2023-05-24T00:40:59;13.45;;;4.25;;
40717;SDS011;26405;51.850;-2.246;2023-05-24T00:43:25;14.07;;;4.05;;
40717;SDS011;26405;51.850;-2.246;2023-05-24T00:46:09;14.77;;;4.55;;
40717;SDS011;26405;51.850;-2.246;2023-05-24T00:48:37;13.88;;;4.10;;
40717;SDS011;26405;51.850;-2.246;2023-05-24T00:51:02;14.10;;;4.00;;
40717;SDS011;26405;51.850;-2.246;2023-05-24T00:53:27;13.18;;;3.78;;
40717;SDS011;26405;51.850;-2.246;2023-05-24T00:55:53;18.33;;;3.97;;
40717;SDS011;26405;51.850;-2.246;2023-05-24T00:58:19;14.30;;;3.92;;
40717;SDS011;26405;51.850;-2.246;2023-05-24T01:00:45;14.67;;;3.83;;
40717;SDS011;26405;51.850;-2.246;2023-05-24T01:03:13;14.07;;;4.28;;
40717;SDS011;26405;51.850;-2.246;2023-05-24T01:05:39;12.60;;;4.03;;
40717;SDS011;26405;51.850;-2.246;2023-05-24T01:08:14;13.07;;;3.67;;
40717;SDS011;26405;51.850;-2.246;2023-05-24T01:11:00;14.38;;;4.00;;
40717;SDS011;26405;51.850;-2.246;2023-05-24T01:13:29;13.18;;;4.28;;
40717;SDS011;26405;51.850;-2.246;2023-05-24T01:18:33;11.73;;;3.90;;
40717;SDS011;26405;51.850;-2.246;2023-05-24T01:28:53;13.05;;;3.72;;
40717;SDS011;26405;51.850;-2.246;2023-05-24T01:31:19;14.90;;;4.55;;
40717;SDS011;26405;51.850;-2.246;2023-05-24T01:33:45;14.75;;;4.22;;
40717;SDS011;26405;51.850;-2.246;2023-05-24T01:36:10;13.55;;;4.22;;
40717;SDS011;26405;51.850;-2.246;2023-05-24T01:38:36;14.45;;;4.35;;
40717;SDS011;26405;51.850;-2.246;2023-05-24T01:41:09;13.82;;;3.80;;
40717;SDS011;26405;51.850;-2.246;2023-05-24T01:43:38;10.77;;;3.70;;
40717;SDS011;26405;51.850;-2.246;2023-05-24T01:50:58;16.60;;;4.45;;
40717;SDS011;26405;51.850;-2.246;2023-05-24T01:53:24;15.32;;;4.40;;
40717;SDS011;26405;51.850;-2.246;2023-05-24T01:55:53;13.65;;;4.47;;
40717;SDS011;26405;51.850;-2.246;2023-05-24T01:58:20;15.65;;;4.78;;
40717;SDS011;26405;51.850;-2.246;2023-05-24T02:00:46;15.02;;;4.97;;
40717;SDS011;26405;51.850;-2.246;2023-05-24T02:03:13;16.48;;;5.10;;
40717;SDS011;26405;51.850;-2.246;2023-05-24T02:05:38;17.13;;;5.07;;
40717;SDS011;26405;51.850;-2.246;2023-05-24T02:08:04;15.52;;;4.43;;
40717;SDS011;26405;51.850;-2.246;2023-05-24T02:10:29;16.05;;;5.05;;
40717;SDS011;26405;51.850;-2.246;2023-05-24T02:12:54;14.52;;;4.60;;
40717;SDS011;26405;51.850;-2.246;2023-05-24T02:15:19;13.50;;;4.22;;
40717;SDS011;26405;51.850;-2.246;2023-05-24T02:17:45;16.13;;;4.93;;
40717;SDS011;26405;51.850;-2.246;2023-05-24T02:20:12;16.30;;;4.55;;
40717;SDS011;26405;51.850;-2.246;2023-05-24T02:22:37;14.95;;;4.25;;
40717;SDS011;26405;51.850;-2.246;2023-05-24T02:25:02;13.27;;;4.53;;
40717;SDS011;26405;51.850;-2.246;2023-05-24T02:27:28;15.50;;;5.20;;
40717;SDS011;26405;51.850;-2.246;2023-05-24T02:29:53;12.80;;;4.78;;
40717;SDS011;26405;51.850;-2.246;2023-05-24T02:32:18;16.00;;;4.72;;
40717;SDS011;26405;51.850;-2.246;2023-05-24T02:34:44;14.07;;;4.75;;
40717;SDS011;26405;51.850;-2.246;2023-05-24T02:37:09;16.73;;;5.00;;
40717;SDS011;26405;51.850;-2.246;2023-05-24T02:39:39;15.48;;;4.20;;
40717;SDS011;26405;51.850;-2.246;2023-05-24T02:42:04;15.88;;;4.85;;
40717;SDS011;26405;51.850;-2.246;2023-05-24T02:44:30;16.15;;;5.07;;
40717;SDS011;26405;51.850;-2.246;2023-05-24T02:46:55;14.88;;;4.53;;
40717;SDS011;26405;51.850;-2.246;2023-05-24T02:49:20;17.00;;;5.30;;
40717;SDS011;26405;51.850;-2.246;2023-05-24T02:51:46;16.60;;;4.88;;
40717;SDS011;26405;51.850;-2.246;2023-05-24T02:54:11;14.25;;;4.65;;
40717;SDS011;26405;51.850;-2.246;2023-05-24T02:56:36;17.05;;;4.70;;
40717;SDS011;26405;51.850;-2.246;2023-05-24T03:01:29;18.00;;;5.50;;
40717;SDS011;26405;51.850;-2.246;2023-05-24T03:03:54;15.55;;;4.75;;
40717;SDS011;26405;51.850;-2.246;2023-05-24T03:06:20;17.58;;;4.90;;
40717;SDS011;26405;51.850;-2.246;2023-05-24T03:08:45;18.63;;;5.65;;
40717;SDS011;26405;51.850;-2.246;2023-05-24T03:11:11;21.75;;;5.30;;
40717;SDS011;26405;51.850;-2.246;2023-05-24T03:13:36;16.58;;;5.53;;
40717;SDS011;26405;51.850;-2.246;2023-05-24T03:16:02;18.60;;;5.18;;
40717;SDS011;26405;51.850;-2.246;2023-05-24T03:18:27;19.83;;;5.50;;
40717;SDS011;26405;51.850;-2.246;2023-05-24T03:20:52;17.13;;;4.80;;
40717;SDS011;26405;51.850;-2.246;2023-05-24T03:23:18;17.60;;;5.10;;
40717;SDS011;26405;51.850;-2.246;2023-05-24T03:25:43;17.35;;;4.60;;
40717;SDS011;26405;51.850;-2.246;2023-05-24T03:28:08;18.23;;;5.43;;
40717;SDS011;26405;51.850;-2.246;2023-05-24T03:30:34;18.30;;;5.28;;
40717;SDS011;26405;51.850;-2.246;2023-05-24T03:32:59;20.70;;;6.00;;
40717;SDS011;26405;51.850;-2.246;2023-05-24T03:35:25;16.95;;;5.55;;
40717;SDS011;26405;51.850;-2.246;2023-05-24T03:37:50;17.30;;;5.65;;
40717;SDS011;26405;51.850;-2.246;2023-05-24T03:40:17;17.87;;;5.43;;
40717;SDS011;26405;51.850;-2.246;2023-05-24T03:42:42;18.58;;;5.32;;
40717;SDS011;26405;51.850;-2.246;2023-05-24T03:45:07;17.25;;;5.30;;
40717;SDS011;26405;51.850;-2.246;2023-05-24T03:47:33;18.48;;;5.50;;
40717;SDS011;26405;51.850;-2.246;2023-05-24T03:49:58;17.42;;;5.65;;
40717;SDS011;26405;51.850;-2.246;2023-05-24T03:52:24;14.32;;;4.97;;
40717;SDS011;26405;51.850;-2.246;2023-05-24T03:54:49;17.67;;;5.38;;
40717;SDS011;26405;51.850;-2.246;2023-05-24T03:57:15;14.73;;;4.85;;
40717;SDS011;26405;51.850;-2.246;2023-05-24T03:59:40;15.00;;;4.57;;
40717;SDS011;26405;51.850;-2.246;2023-05-24T04:02:05;15.80;;;4.60;;
40717;SDS011;26405;51.850;-2.246;2023-05-24T04:04:31;14.57;;;4.85;;
40717;SDS011;26405;51.850;-2.246;2023-05-24T04:06:56;15.48;;;4.50;;
40717;SDS011;26405;51.850;-2.246;2023-05-24T04:09:22;12.90;;;4.30;;
40717;SDS011;26405;51.850;-2.246;2023-05-24T04:11:47;12.73;;;4.10;;
40717;SDS011;26405;51.850;-2.246;2023-05-24T04:14:13;14.90;;;4.57;;
40717;SDS011;26405;51.850;-2.246;2023-05-24T04:16:38;13.90;;;4.53;;
40717;SDS011;26405;51.850;-2.246;2023-05-24T04:19:05;13.52;;;4.53;;
40717;SDS011;26405;51.850;-2.246;2023-05-24T04:21:31;12.63;;;4.57;;
40717;SDS011;26405;51.850;-2.246;2023-05-24T04:23:57;14.67;;;4.40;;
40717;SDS011;26405;51.850;-2.246;2023-05-24T04:26:25;12.50;;;4.18;;
40717;SDS011;26405;51.850;-2.246;2023-05-24T04:28:51;11.95;;;4.40;;
40717;SDS011;26405;51.850;-2.246;2023-05-24T04:31:16;13.60;;;4.50;;
40717;SDS011;26405;51.850;-2.246;2023-05-24T04:33:41;15.25;;;4.40;;
40717;SDS011;26405;51.850;-2.246;2023-05-24T04:36:07;15.27;;;4.85;;
40717;SDS011;26405;51.850;-2.246;2023-05-24T04:38:32;15.73;;;4.32;;
40717;SDS011;26405;51.850;-2.246;2023-05-24T04:41:00;19.27;;;5.35;;
40717;SDS011;26405;51.850;-2.246;2023-05-24T04:43:25;16.27;;;5.10;;
40717;SDS011;26405;51.850;-2.246;2023-05-24T04:45:53;14.30;;;4.55;;
40717;SDS011;26405;51.850;-2.246;2023-05-24T04:48:19;14.80;;;4.63;;
40717;SDS011;26405;51.850;-2.246;2023-05-24T04:50:45;16.42;;;5.03;;
40717;SDS011;26405;51.850;-2.246;2023-05-24T04:53:11;17.63;;;4.90;;
40717;SDS011;26405;51.850;-2.246;2023-05-24T04:55:37;16.23;;;4.70;;
40717;SDS011;26405;51.850;-2.246;2023-05-24T04:58:02;13.65;;;4.20;;
40717;SDS011;26405;51.850;-2.246;2023-05-24T05:00:28;15.23;;;4.78;;
40717;SDS011;26405;51.850;-2.246;2023-05-24T05:02:54;14.52;;;4.75;;
40717;SDS011;26405;51.850;-2.246;2023-05-24T05:05:19;15.70;;;4.70;;
40717;SDS011;26405;51.850;-2.246;2023-05-24T05:07:45;14.68;;;4.60;;
40717;SDS011;26405;51.850;-2.246;2023-05-24T05:10:10;14.30;;;4.28;;
40717;SDS011;26405;51.850;-2.246;2023-05-24T05:12:35;13.73;;;4.60;;
40717;SDS011;26405;51.850;-2.246;2023-05-24T05:15:01;15.98;;;4.88;;
40717;SDS011;26405;51.850;-2.246;2023-05-24T05:17:26;17.08;;;4.82;;
40717;SDS011;26405;51.850;-2.246;2023-05-24T05:19:51;15.10;;;4.80;;
40717;SDS011;26405;51.850;-2.246;2023-05-24T05:22:16;16.60;;;4.75;;
40717;SDS011;26405;51.850;-2.246;2023-05-24T05:24:42;14.95;;;4.35;;
40717;SDS011;26405;51.850;-2.246;2023-05-24T05:27:07;16.13;;;4.10;;
40717;SDS011;26405;51.850;-2.246;2023-05-24T05:29:32;13.30;;;4.35;;
40717;SDS011;26405;51.850;-2.246;2023-05-24T05:31:57;16.17;;;4.25;;
40717;SDS011;26405;51.850;-2.246;2023-05-24T05:34:23;15.90;;;4.18;;
40717;SDS011;26405;51.850;-2.246;2023-05-24T05:36:48;16.30;;;4.60;;
40717;SDS011;26405;51.850;-2.246;2023-05-24T05:39:13;16.70;;;4.10;;
40717;SDS011;26405;51.850;-2.246;2023-05-24T05:41:39;18.10;;;4.53;;
40717;SDS011;26405;51.850;-2.246;2023-05-24T05:44:06;15.68;;;4.63;;
40717;SDS011;26405;51.850;-2.246;2023-05-24T05:46:31;14.82;;;4.25;;
40717;SDS011;26405;51.850;-2.246;2023-05-24T05:48:56;19.67;;;4.65;;
40717;SDS011;26405;51.850;-2.246;2023-05-24T05:51:22;16.30;;;4.40;;
40717;SDS011;26405;51.850;-2.246;2023-05-24T05:53:47;11.23;;;3.92;;
40717;SDS011;26405;51.850;-2.246;2023-05-24T05:56:12;15.57;;;4.20;;
40717;SDS011;26405;51.850;-2.246;2023-05-24T05:58:37;15.05;;;4.32;;
40717;SDS011;26405;51.850;-2.246;2023-05-24T06:01:03;16.70;;;4.38;;
40717;SDS011;26405;51.850;-2.246;2023-05-24T06:03:28;13.25;;;4.22;;
40717;SDS011;26405;51.850;-2.246;2023-05-24T06:05:53;11.07;;;3.75;;
40717;SDS011;26405;51.850;-2.246;2023-05-24T06:08:19;14.73;;;4.13;;
40717;SDS011;26405;51.850;-2.246;2023-05-24T06:10:44;14.55;;;4.40;;
40717;SDS011;26405;51.850;-2.246;2023-05-24T06:13:09;16.98;;;4.25;;
40717;SDS011;26405;51.850;-2.246;2023-05-24T06:15:35;15.13;;;4.28;;
40717;SDS011;26405;51.850;-2.246;2023-05-24T06:18:01;15.75;;;4.85;;
40717;SDS011;26405;51.850;-2.246;2023-05-24T06:20:27;16.63;;;4.70;;
40717;SDS011;26405;51.850;-2.246;2023-05-24T06:22:52;13.07;;;4.20;;
40717;SDS011;26405;51.850;-2.246;2023-05-24T06:25:17;16.42;;;4.40;;
40717;SDS011;26405;51.850;-2.246;2023-05-24T06:27:44;13.75;;;4.32;;
40717;SDS011;26405;51.850;-2.246;2023-05-24T06:30:10;14.23;;;4.18;;
40717;SDS011;26405;51.850;-2.246;2023-05-24T06:32:35;11.85;;;4.20;;
40717;SDS011;26405;51.850;-2.246;2023-05-24T06:35:01;12.43;;;4.28;;
40717;SDS011;26405;51.850;-2.246;2023-05-24T06:37:26;12.00;;;3.92;;
40717;SDS011;26405;51.850;-2.246;2023-05-24T06:39:55;11.52;;;3.95;;
40717;SDS011;26405;51.850;-2.246;2023-05-24T06:42:20;15.25;;;4.13;;
40717;SDS011;26405;51.850;-2.246;2023-05-24T06:44:45;13.32;;;3.97;;
40717;SDS011;26405;51.850;-2.246;2023-05-24T06:47:11;11.65;;;3.83;;
40717;SDS011;26405;51.850;-2.246;2023-05-24T06:49:36;14.85;;;4.20;;
40717;SDS011;26405;51.850;-2.246;2023-05-24T06:52:04;18.58;;;4.50;;
40717;SDS011;26405;51.850;-2.246;2023-05-24T06:54:31;16.27;;;4.03;;
40717;SDS011;26405;51.850;-2.246;2023-05-24T06:56:56;13.52;;;4.03;;
40717;SDS011;26405;51.850;-2.246;2023-05-24T06:59:22;13.55;;;3.70;;
40717;SDS011;26405;51.850;-2.246;2023-05-24T07:01:48;15.70;;;4.22;;
40717;SDS011;26405;51.850;-2.246;2023-05-24T07:04:15;14.93;;;3.90;;
40717;SDS011;26405;51.850;-2.246;2023-05-24T07:06:40;15.07;;;4.13;;
40717;SDS011;26405;51.850;-2.246;2023-05-24T07:09:06;11.65;;;3.70;;
40717;SDS011;26405;51.850;-2.246;2023-05-24T07:11:31;17.17;;;4.35;;
40717;SDS011;26405;51.850;-2.246;2023-05-24T07:13:56;11.27;;;4.10;;
40717;SDS011;26405;51.850;-2.246;2023-05-24T07:16:22;14.87;;;4.10;;
40717;SDS011;26405;51.850;-2.246;2023-05-24T07:18:47;14.23;;;3.97;;
40717;SDS011;26405;51.850;-2.246;2023-05-24T07:21:12;15.30;;;4.53;;
40717;SDS011;26405;51.850;-2.246;2023-05-24T07:23:38;14.13;;;4.27;;
40717;SDS011;26405;51.850;-2.246;2023-05-24T07:26:03;16.30;;;3.93;;
40717;SDS011;26405;51.850;-2.246;2023-05-24T07:28:29;14.00;;;3.53;;
40717;SDS011;26405;51.850;-2.246;2023-05-24T07:30:54;15.53;;;4.33;;
40717;SDS011;26405;51.850;-2.246;2023-05-24T07:33:19;17.37;;;4.30;;
40717;SDS011;26405;51.850;-2.246;2023-05-24T07:35:45;14.53;;;4.07;;
40717;SDS011;26405;51.850;-2.246;2023-05-24T07:38:16;14.25;;;3.95;;
40717;SDS011;26405;51.850;-2.246;2023-05-24T07:40:41;13.55;;;4.07;;
40717;SDS011;26405;51.850;-2.246;2023-05-24T07:43:07;15.03;;;4.03;;
40717;SDS011;26405;51.850;-2.246;2023-05-24T07:45:32;19.57;;;4.63;;
40717;SDS011;26405;51.850;-2.246;2023-05-24T07:47:57;15.00;;;4.03;;
40717;SDS011;26405;51.850;-2.246;2023-05-24T07:50:23;16.10;;;4.03;;
40717;SDS011;26405;51.850;-2.246;2023-05-24T07:52:48;15.30;;;4.30;;
40717;SDS011;26405;51.850;-2.246;2023-05-24T07:55:14;18.07;;;4.30;;
40717;SDS011;26405;51.850;-2.246;2023-05-24T07:57:39;18.33;;;4.50;;
40717;SDS011;26405;51.850;-2.246;2023-05-24T08:00:05;18.50;;;4.57;;
40717;SDS011;26405;51.850;-2.246;2023-05-24T08:02:43;15.93;;;4.65;;
40717;SDS011;26405;51.850;-2.246;2023-05-24T08:05:13;16.48;;;4.50;;
40717;SDS011;26405;51.850;-2.246;2023-05-24T08:07:38;16.80;;;4.35;;
40717;SDS011;26405;51.850;-2.246;2023-05-24T08:12:30;12.00;;;3.43;;
40717;SDS011;26405;51.850;-2.246;2023-05-24T08:14:56;16.37;;;4.50;;
40717;SDS011;26405;51.850;-2.246;2023-05-24T08:17:21;17.00;;;4.87;;
40717;SDS011;26405;51.850;-2.246;2023-05-24T08:19:46;15.83;;;4.43;;
40717;SDS011;26405;51.850;-2.246;2023-05-24T08:22:12;13.57;;;4.80;;
40717;SDS011;26405;51.850;-2.246;2023-05-24T08:24:37;12.03;;;3.73;;
40717;SDS011;26405;51.850;-2.246;2023-05-24T08:27:02;16.10;;;4.37;;
40717;SDS011;26405;51.850;-2.246;2023-05-24T08:29:28;15.57;;;4.40;;
40717;SDS011;26405;51.850;-2.246;2023-05-24T08:31:53;17.70;;;4.70;;
40717;SDS011;26405;51.850;-2.246;2023-05-24T08:34:19;16.13;;;4.47;;
40717;SDS011;26405;51.850;-2.246;2023-05-24T08:36:44;12.83;;;4.20;;
40717;SDS011;26405;51.850;-2.246;2023-05-24T08:39:09;16.77;;;4.73;;
40717;SDS011;26405;51.850;-2.246;2023-05-24T08:41:35;10.77;;;3.63;;
40717;SDS011;26405;51.850;-2.246;2023-05-24T08:44:06;12.55;;;3.83;;
40717;SDS011;26405;51.850;-2.246;2023-05-24T08:46:35;14.98;;;4.28;;
40717;SDS011;26405;51.850;-2.246;2023-05-24T08:49:01;15.00;;;4.68;;
40717;SDS011;26405;51.850;-2.246;2023-05-24T08:51:29;12.60;;;4.35;;
40717;SDS011;26405;51.850;-2.246;2023-05-24T08:53:58;14.43;;;4.20;;
40717;SDS011;26405;51.850;-2.246;2023-05-24T08:56:23;13.13;;;3.97;;
40717;SDS011;26405;51.850;-2.246;2023-05-24T08:58:49;16.13;;;4.30;;
40717;SDS011;26405;51.850;-2.246;2023-05-24T09:01:15;12.67;;;4.07;;
40717;SDS011;26405;51.850;-2.246;2023-05-24T09:03:40;13.93;;;4.23;;
40717;SDS011;26405;51.850;-2.246;2023-05-24T09:06:10;15.20;;;4.07;;
40717;SDS011;26405;51.850;-2.246;2023-05-24T09:08:37;10.70;;;3.67;;
40717;SDS011;26405;51.850;-2.246;2023-05-24T09:11:02;13.40;;;4.20;;
40717;SDS011;26405;51.850;-2.246;2023-05-24T09:18:20;12.43;;;4.23;;
40717;SDS011;26405;51.850;-2.246;2023-05-24T09:20:46;14.30;;;3.97;;
40717;SDS011;26405;51.850;-2.246;2023-05-24T09:23:11;14.23;;;3.90;;
40717;SDS011;26405;51.850;-2.246;2023-05-24T09:25:42;12.82;;;3.92;;
40717;SDS011;26405;51.850;-2.246;2023-05-24T09:28:07;17.48;;;3.78;;
40717;SDS011;26405;51.850;-2.246;2023-05-24T09:30:33;11.93;;;4.37;;
40717;SDS011;26405;51.850;-2.246;2023-05-24T09:32:59;13.30;;;3.93;;
40717;SDS011;26405;51.850;-2.246;2023-05-24T09:35:25;10.57;;;3.72;;
40717;SDS011;26405;51.850;-2.246;2023-05-24T09:37:54;15.03;;;4.00;;
40717;SDS011;26405;51.850;-2.246;2023-05-24T09:40:21;12.38;;;4.20;;
40717;SDS011;26405;51.850;-2.246;2023-05-24T09:42:47;12.52;;;3.72;;
40717;SDS011;26405;51.850;-2.246;2023-05-24T09:45:15;9.45;;;3.80;;
40717;SDS011;26405;51.850;-2.246;2023-05-24T09:47:41;15.45;;;4.32;;
40717;SDS011;26405;51.850;-2.246;2023-05-24T09:50:11;14.20;;;4.38;;
40717;SDS011;26405;51.850;-2.246;2023-05-24T09:52:37;14.70;;;4.47;;
40717;SDS011;26405;51.850;-2.246;2023-05-24T09:55:12;13.00;;;4.30;;
40717;SDS011;26405;51.850;-2.246;2023-05-24T09:57:38;13.90;;;4.00;;
40717;SDS011;26405;51.850;-2.246;2023-05-24T10:00:06;11.43;;;4.10;;
40717;SDS011;26405;51.850;-2.246;2023-05-24T10:02:38;11.88;;;4.13;;
40717;SDS011;26405;51.850;-2.246;2023-05-24T10:05:03;15.27;;;4.10;;
40717;SDS011;26405;51.850;-2.246;2023-05-24T10:07:29;12.27;;;4.17;;
40717;SDS011;26405;51.850;-2.246;2023-05-24T10:09:56;16.08;;;4.28;;
40717;SDS011;26405;51.850;-2.246;2023-05-24T10:12:22;12.37;;;4.17;;
40717;SDS011;26405;51.850;-2.246;2023-05-24T10:14:49;12.20;;;3.90;;
40717;SDS011;26405;51.850;-2.246;2023-05-24T10:17:15;10.77;;;3.70;;
40717;SDS011;26405;51.850;-2.246;2023-05-24T10:19:40;15.23;;;4.50;;
40717;SDS011;26405;51.850;-2.246;2023-05-24T10:22:06;10.97;;;3.70;;
40717;SDS011;26405;51.850;-2.246;2023-05-24T10:26:57;11.98;;;3.83;;
40717;SDS011;26405;51.850;-2.246;2023-05-24T10:31:55;10.77;;;3.83;;
40717;SDS011;26405;51.850;-2.246;2023-05-24T10:34:21;14.07;;;4.37;;
40717;SDS011;26405;51.850;-2.246;2023-05-24T10:36:46;14.03;;;4.00;;
40717;SDS011;26405;51.850;-2.246;2023-05-24T10:39:12;11.75;;;3.83;;
40717;SDS011;26405;51.850;-2.246;2023-05-24T10:41:38;11.87;;;4.07;;
40717;SDS011;26405;51.850;-2.246;2023-05-24T10:44:09;12.05;;;4.00;;
40717;SDS011;26405;51.850;-2.246;2023-05-24T10:46:34;13.02;;;4.10;;
40717;SDS011;26405;51.850;-2.246;2023-05-24T10:49:00;11.47;;;4.13;;
40717;SDS011;26405;51.850;-2.246;2023-05-24T10:51:29;15.63;;;4.00;;
40717;SDS011;26405;51.850;-2.246;2023-05-24T10:53:56;14.00;;;4.50;;
40717;SDS011;26405;51.850;-2.246;2023-05-24T10:56:22;12.67;;;3.90;;
40717;SDS011;26405;51.850;-2.246;2023-05-24T11:01:31;13.30;;;4.00;;
40717;SDS011;26405;51.850;-2.246;2023-05-24T11:04:11;12.00;;;4.10;;
40717;SDS011;26405;51.850;-2.246;2023-05-24T11:06:49;13.25;;;4.40;;
40717;SDS011;26405;51.850;-2.246;2023-05-24T11:09:19;14.50;;;4.35;;
40717;SDS011;26405;51.850;-2.246;2023-05-24T11:11:45;13.67;;;4.00;;
40717;SDS011;26405;51.850;-2.246;2023-05-24T11:14:11;12.52;;;3.90;;
40717;SDS011;26405;51.850;-2.246;2023-05-24T11:16:37;12.68;;;4.18;;
40717;SDS011;26405;51.850;-2.246;2023-05-24T11:19:18;12.60;;;4.13;;
40717;SDS011;26405;51.850;-2.246;2023-05-24T11:21:47;12.70;;;4.20;;
40717;SDS011;26405;51.850;-2.246;2023-05-24T11:24:14;9.07;;;3.70;;
40717;SDS011;26405;51.850;-2.246;2023-05-24T11:26:41;14.35;;;3.80;;
40717;SDS011;26405;51.850;-2.246;2023-05-24T11:29:07;12.35;;;4.25;;
40717;SDS011;26405;51.850;-2.246;2023-05-24T11:31:33;11.00;;;4.13;;
40717;SDS011;26405;51.850;-2.246;2023-05-24T11:34:01;10.45;;;4.22;;
40717;SDS011;26405;51.850;-2.246;2023-05-24T11:36:26;10.95;;;3.90;;
40717;SDS011;26405;51.850;-2.246;2023-05-24T11:38:52;10.23;;;3.83;;
40717;SDS011;26405;51.850;-2.246;2023-05-24T11:41:18;10.98;;;3.92;;
40717;SDS011;26405;51.850;-2.246;2023-05-24T11:43:43;8.20;;;3.70;;
40717;SDS011;26405;51.850;-2.246;2023-05-24T11:46:08;11.80;;;4.27;;
40717;SDS011;26405;51.850;-2.246;2023-05-24T11:48:33;15.63;;;4.53;;
40717;SDS011;26405;51.850;-2.246;2023-05-24T11:50:59;9.87;;;3.80;;
40717;SDS011;26405;51.850;-2.246;2023-05-24T11:53:24;15.37;;;4.57;;
40717;SDS011;26405;51.850;-2.246;2023-05-24T11:55:51;12.90;;;4.07;;
40717;SDS011;26405;51.850;-2.246;2023-05-24T12:00:44;14.07;;;4.30;;
40717;SDS011;26405;51.850;-2.246;2023-05-24T12:03:09;10.93;;;4.00;;
40717;SDS011;26405;51.850;-2.246;2023-05-24T12:05:35;12.87;;;4.23;;
40717;SDS011;26405;51.850;-2.246;2023-05-24T12:10:28;12.68;;;4.28;;
40717;SDS011;26405;51.850;-2.246;2023-05-24T12:12:55;12.43;;;4.13;;
40717;SDS011;26405;51.850;-2.246;2023-05-24T12:15:21;12.30;;;4.30;;
40717;SDS011;26405;51.850;-2.246;2023-05-24T12:17:46;11.60;;;4.15;;
40717;SDS011;26405;51.850;-2.246;2023-05-24T12:20:14;11.57;;;4.10;;
40717;SDS011;26405;51.850;-2.246;2023-05-24T12:22:46;12.95;;;4.20;;
40717;SDS011;26405;51.850;-2.246;2023-05-24T12:25:12;11.25;;;4.05;;
40717;SDS011;26405;51.850;-2.246;2023-05-24T12:27:41;11.43;;;4.38;;
40717;SDS011;26405;51.850;-2.246;2023-05-24T12:30:11;10.15;;;4.20;;
40717;SDS011;26405;51.850;-2.246;2023-05-24T12:32:42;16.25;;;4.93;;
40717;SDS011;26405;51.850;-2.246;2023-05-24T12:35:09;12.97;;;4.53;;
40717;SDS011;26405;51.850;-2.246;2023-05-24T12:37:35;11.50;;;4.10;;
40717;SDS011;26405;51.850;-2.246;2023-05-24T12:40:00;14.77;;;4.13;;
40717;SDS011;26405;51.850;-2.246;2023-05-24T12:42:29;11.30;;;4.13;;
40717;SDS011;26405;51.850;-2.246;2023-05-24T12:44:54;10.57;;;4.10;;
40717;SDS011;26405;51.850;-2.246;2023-05-24T12:47:19;10.13;;;4.07;;
40717;SDS011;26405;51.850;-2.246;2023-05-24T12:49:45;13.87;;;4.67;;
40717;SDS011;26405;51.850;-2.246;2023-05-24T12:52:11;12.73;;;4.30;;
40717;SDS011;26405;51.850;-2.246;2023-05-24T12:54:37;13.35;;;4.30;;
40717;SDS011;26405;51.850;-2.246;2023-05-24T12:57:02;13.00;;;4.53;;
40717;SDS011;26405;51.850;-2.246;2023-05-24T12:59:27;10.40;;;4.30;;
40717;SDS011;26405;51.850;-2.246;2023-05-24T13:01:53;11.85;;;4.38;;
40717;SDS011;26405;51.850;-2.246;2023-05-24T13:04:19;11.48;;;4.40;;
40717;SDS011;26405;51.850;-2.246;2023-05-24T13:06:45;10.70;;;4.50;;
40717;SDS011;26405;51.850;-2.246;2023-05-24T13:09:10;14.10;;;4.53;;
40717;SDS011;26405;51.850;-2.246;2023-05-24T13:11:36;13.77;;;4.70;;
40717;SDS011;26405;51.850;-2.246;2023-05-24T13:14:02;10.20;;;4.10;;
40717;SDS011;26405;51.850;-2.246;2023-05-24T13:16:27;13.75;;;4.57;;
40717;SDS011;26405;51.850;-2.246;2023-05-24T13:18:52;11.33;;;4.17;;
40717;SDS011;26405;51.850;-2.246;2023-05-24T13:21:18;12.97;;;4.40;;
40717;SDS011;26405;51.850;-2.246;2023-05-24T13:23:43;11.97;;;4.63;;
40717;SDS011;26405;51.850;-2.246;2023-05-24T13:26:09;17.60;;;6.07;;
40717;SDS011;26405;51.850;-2.246;2023-05-24T13:28:35;15.57;;;6.07;;
40717;SDS011;26405;51.850;-2.246;2023-05-24T13:31:00;13.67;;;4.57;;
40717;SDS011;26405;51.850;-2.246;2023-05-24T13:33:25;11.83;;;4.60;;
40717;SDS011;26405;51.850;-2.246;2023-05-24T13:35:54;14.50;;;4.80;;
40717;SDS011;26405;51.850;-2.246;2023-05-24T13:38:19;14.00;;;5.00;;
40717;SDS011;26405;51.850;-2.246;2023-05-24T13:40:45;12.65;;;4.47;;
40717;SDS011;26405;51.850;-2.246;2023-05-24T13:43:10;12.23;;;4.68;;
40717;SDS011;26405;51.850;-2.246;2023-05-24T13:45:36;8.90;;;4.17;;
40717;SDS011;26405;51.850;-2.246;2023-05-24T13:48:01;13.17;;;4.33;;
40717;SDS011;26405;51.850;-2.246;2023-05-24T13:50:30;12.60;;;4.43;;
40717;SDS011;26405;51.850;-2.246;2023-05-24T13:52:56;12.35;;;4.55;;
40717;SDS011;26405;51.850;-2.246;2023-05-24T13:57:47;12.32;;;4.82;;
40717;SDS011;26405;51.850;-2.246;2023-05-24T14:00:12;17.23;;;4.57;;
40717;SDS011;26405;51.850;-2.246;2023-05-24T14:02:38;13.32;;;5.13;;
40717;SDS011;26405;51.850;-2.246;2023-05-24T14:05:03;12.07;;;4.50;;
40717;SDS011;26405;51.850;-2.246;2023-05-24T14:07:29;13.07;;;5.13;;
40717;SDS011;26405;51.850;-2.246;2023-05-24T14:09:54;17.13;;;4.77;;
40717;SDS011;26405;51.850;-2.246;2023-05-24T14:12:20;14.13;;;5.35;;
40717;SDS011;26405;51.850;-2.246;2023-05-24T14:14:45;14.40;;;4.80;;
40717;SDS011;26405;51.850;-2.246;2023-05-24T14:17:10;12.13;;;4.40;;
40717;SDS011;26405;51.850;-2.246;2023-05-24T14:19:36;12.40;;;5.17;;
40717;SDS011;26405;51.850;-2.246;2023-05-24T14:24:26;12.70;;;4.83;;
40717;SDS011;26405;51.850;-2.246;2023-05-24T14:26:52;13.13;;;4.80;;
40717;SDS011;26405;51.850;-2.246;2023-05-24T14:29:17;12.33;;;4.90;;
40717;SDS011;26405;51.850;-2.246;2023-05-24T14:34:08;10.67;;;4.50;;
40717;SDS011;26405;51.850;-2.246;2023-05-24T14:36:34;8.57;;;4.03;;
40717;SDS011;26405;51.850;-2.246;2023-05-24T14:41:25;12.53;;;4.57;;
40717;SDS011;26405;51.850;-2.246;2023-05-24T14:43:51;14.70;;;4.40;;
40717;SDS011;26405;51.850;-2.246;2023-05-24T14:46:16;11.80;;;4.43;;
40717;SDS011;26405;51.850;-2.246;2023-05-24T14:51:07;9.50;;;3.90;;
40717;SDS011;26405;51.850;-2.246;2023-05-24T14:53:32;15.60;;;4.50;;
40717;SDS011;26405;51.850;-2.246;2023-05-24T14:55:57;11.83;;;4.33;;
40717;SDS011;26405;51.850;-2.246;2023-05-24T14:58:22;10.13;;;4.20;;
40717;SDS011;26405;51.850;-2.246;2023-05-24T15:03:13;11.80;;;4.55;;
40717;SDS011;26405;51.850;-2.246;2023-05-24T15:08:06;13.00;;;4.53;;
40717;SDS011;26405;51.850;-2.246;2023-05-24T15:10:32;10.63;;;4.35;;
40717;SDS011;26405;51.850;-2.246;2023-05-24T15:15:22;13.63;;;4.33;;